Startpagina
METAR-TAF:

METAR-TAF

Vliegvelden :

Vlissingen, Nederland

breedte: 51-27N, lengte: 3-36E, hoogte: 10 m

Actueel weer

Dit bericht is 40 minuten geleden gemaakt, om 10:25 UTC
Wind 10 kt uit het oostzuidoosten, variërend tussen het oosten en het zuidzuidoosten
Temperatuur 22°C
Vochtigheid 65%
Druk 1021 hPa
Zicht 10 km of meer

METAR: EHFS 261025Z AUTO 11010KT 080V150 9999 NCD 22/15 Q1021

Tijdstip: 13:05 (11:05 UTC)


TAF: ontbreekt

Waarnemingen en weersverwachtingen van meer dan 4000 vliegvelden (METAR en TAF).

De beschikbare stations zijn de gele en rode punten op de kaart.

Ga met uw muis naar het station om de naam te zien.

Klik dan om waarnemingen en weersverwachtingen te zien.

kaart wijzigen: klik op de groene knoppen met een zwart kruis om in te zoomen, op de groene knop met een streepje om uit te zoomen of op de groene pijlen voor aangrenzende kaarten.


METAR-TAF: